YBRJ weather

Burren Junction Airport
New South Wales, Australia

Public forecast

Using degrees Celsius for public forecast. Weather courtesy of forecast.io.

Closest aviation weather report (METAR) to Burren Junction Airport

Closest report is Narrabri Airport, 45.2 nm (83.8 km) ESE. Retrieved 2020/07/13 08:00 UTC (1 hour ago):

YNBR 130800Z AUTO 06005KT 9999 // NCD 07/05 Q1020

Closest aviation forecast (TAF) to Burren Junction Airport

Closest forecast is Tamworth Airport, 111.5 nm (206.6 km) ESE. Retrieved 2020/07/13 05:00 UTC (4 hours ago):

TAF YSTW 130521Z 1305/1400 29008KT 9999 -SHRA SCT015 BKN025 FM130900 26006KT 9999 -SHRA BKN010 INTER 1305/1309 5000 SHRA BKN010 TEMPO 1309/1400 4000 SHRA BKN008 PROB30 INTER 1305/1312 2000 TSRA BKN006 SCT020CB PROB30 1312/1400 VRB03KT 0500 FG